Time;durP1;ratioP1;P1;durP2;ratioP2;P2;SDS_P1;SDS_P2;PMS_P1;PMS_P2;Temp;Humidity;BMP_temperature;BMP_pressure;BME280_temperature;BME280_humidity;BME280_pressure;Samples;Min_cycle;Max_cycle;Signal;HPM_P1;HPM_P2
2022/06/17 00:00:51;;;;;;;9.43;5.63;;;16.20;99.90;;;;;;5098141;28;20042;-62
2022/06/17 00:03:18;;;;;;;16.65;6.00;;;16.30;99.90;;;;;;5097598;28;20035;-62
2022/06/17 00:05:45;;;;;;;10.48;6.03;;;16.30;99.90;;;;;;5101722;28;20127;-62
2022/06/17 00:08:16;;;;;;;;;;;16.30;99.90;;;;;;5091483;28;20040;-62
2022/06/17 00:10:42;;;;;;;11.88;6.05;;;16.30;99.90;;;;;;5083811;28;19927;-63
2022/06/17 00:13:13;;;;;;;9.57;5.97;;;16.20;99.90;;;;;;5091452;28;20059;-62
2022/06/17 00:15:40;;;;;;;10.75;5.85;;;16.20;99.90;;;;;;5073436;28;20450;-62
2022/06/17 00:18:07;;;;;;;10.60;6.18;;;16.10;99.90;;;;;;5087977;28;20071;-62
2022/06/17 00:20:34;;;;;;;;;;;16.00;99.90;;;;;;5087732;28;20036;-62
2022/06/17 00:23:01;;;;;;;9.38;5.70;;;15.90;99.90;;;;;;5091109;28;20003;-62
2022/06/17 00:25:34;;;;;;;9.40;5.60;;;15.90;99.90;;;;;;5091399;28;20044;-62
2022/06/17 00:28:01;;;;;;;9.80;6.32;;;15.90;99.90;;;;;;5085311;28;20044;-62
2022/06/17 00:30:31;;;;;;;9.02;6.50;;;15.90;99.90;;;;;;5090925;28;20438;-62
2022/06/17 00:33:01;;;;;;;10.98;6.75;;;15.70;99.90;;;;;;5072983;28;20054;-61
2022/06/17 00:35:34;;;;;;;11.88;6.38;;;15.70;99.90;;;;;;5084091;28;20097;-62
2022/06/17 00:38:02;;;;;;;8.57;6.13;;;15.60;99.90;;;;;;5064818;28;20056;-62
2022/06/17 00:40:33;;;;;;;8.27;6.13;;;15.60;99.90;;;;;;5090636;28;20040;-62
2022/06/17 00:43:09;;;;;;;12.52;6.70;;;15.60;99.90;;;;;;5072433;28;20473;-61
2022/06/17 00:45:49;;;;;;;12.15;6.50;;;15.60;99.90;;;;;;5073122;28;20047;-62
2022/06/17 00:48:22;;;;;;;9.65;6.43;;;15.60;99.90;;;;;;5091221;28;20043;-62
2022/06/17 00:50:55;;;;;;;14.32;6.70;;;15.50;99.90;;;;;;5070701;28;20412;-62
2022/06/17 00:54:02;;;;;;;12.38;6.25;;;15.50;99.90;;;;;;5090876;28;20043;-62
2022/06/17 00:56:33;;;;;;;11.32;6.68;;;15.50;99.90;;;;;;5036261;28;20410;-62
2022/06/17 00:59:00;;;;;;;8.43;7.00;;;15.50;99.90;;;;;;5072483;28;20043;-62
2022/06/17 01:01:50;;;;;;;11.82;6.55;;;15.60;99.90;;;;;;5072365;28;20127;-62
2022/06/17 01:04:24;;;;;;;12.43;7.03;;;15.60;99.90;;;;;;5073257;28;20048;-62
2022/06/17 01:06:59;;;;;;;9.85;6.32;;;15.50;99.90;;;;;;5071347;28;20596;-62
2022/06/17 01:12:21;;;;;;;8.93;5.75;;;15.40;99.90;;;;;;5053132;28;20066;-62
2022/06/17 01:14:48;;;;;;;10.68;6.18;;;15.40;99.90;;;;;;5070413;28;20543;-62
2022/06/17 01:17:18;;;;;;;10.00;6.57;;;15.30;99.90;;;;;;5075500;28;20040;-62
2022/06/17 01:19:54;;;;;;;10.52;6.30;;;15.30;99.90;;;;;;5076387;28;20416;-62
2022/06/17 01:22:26;;;;;;;11.10;6.45;;;15.30;99.90;;;;;;5076615;28;20048;-62
2022/06/17 01:25:01;;;;;;;11.05;6.00;;;15.30;99.90;;;;;;5076383;28;20055;-62
2022/06/17 01:27:33;;;;;;;12.13;6.03;;;15.30;99.90;;;;;;5096784;22;20390;-67
2022/06/17 01:30:01;;;;;;;10.25;6.65;;;15.40;99.90;;;;;;5044303;28;20082;-66
2022/06/17 01:32:33;;;;;;;6.80;6.05;;;15.40;99.90;;;;;;5048082;28;20052;-67
2022/06/17 01:35:00;;;;;;;9.73;6.13;;;15.30;99.90;;;;;;5055942;28;20040;-66
2022/06/17 01:37:28;;;;;;;11.10;6.45;;;15.30;99.90;;;;;;5067368;28;20044;-67
2022/06/17 01:39:56;;;;;;;9.30;6.55;;;15.30;99.90;;;;;;5075868;28;20059;-67
2022/06/17 01:42:23;;;;;;;;;;;15.20;99.90;;;;;;5076662;28;20067;-66
2022/06/17 01:44:54;;;;;;;14.40;5.93;;;15.10;99.90;;;;;;5066315;28;19927;-67
2022/06/17 01:47:25;;;;;;;12.95;6.82;;;15.10;99.90;;;;;;5061222;28;20053;-66
2022/06/17 01:50:00;;;;;;;11.10;6.55;;;15.10;99.90;;;;;;5055641;28;20250;-66
2022/06/17 01:52:55;;;;;;;10.80;6.65;;;15.10;99.90;;;;;;5066085;28;20052;-66
2022/06/17 01:55:34;;;;;;;11.15;6.60;;;15.00;99.90;;;;;;5056274;28;20040;-66
2022/06/17 01:58:19;;;;;;;8.65;6.70;;;15.00;99.90;;;;;;5055878;28;20098;-66
2022/06/17 02:00:46;;;;;;;10.07;6.10;;;15.00;99.90;;;;;;5064450;28;20086;-66
2022/06/17 02:03:22;;;;;;;12.05;6.53;;;14.90;99.90;;;;;;5069727;28;20040;-66
2022/06/17 02:05:53;;;;;;;11.00;6.75;;;14.80;99.90;;;;;;5075701;28;20044;-66
2022/06/17 02:08:21;;;;;;;9.40;6.15;;;14.80;99.90;;;;;;5075788;28;20134;-66
2022/06/17 02:10:49;;;;;;;10.95;6.30;;;14.80;99.90;;;;;;5072383;28;20048;-66
2022/06/17 02:13:17;;;;;;;10.73;6.25;;;14.80;99.90;;;;;;5069827;28;20105;-66
2022/06/17 02:16:06;;;;;;;9.23;6.63;;;14.70;99.90;;;;;;5075428;28;20097;-66
2022/06/17 02:18:51;;;;;;;8.50;6.68;;;14.60;99.90;;;;;;5072514;28;20135;-66
2022/06/17 02:21:28;;;;;;;11.82;6.25;;;14.60;99.90;;;;;;5069388;28;20071;-66
2022/06/17 02:23:56;;;;;;;11.35;6.95;;;14.60;99.90;;;;;;5093672;28;20490;-65
2022/06/17 02:26:23;;;;;;;8.23;6.00;;;14.60;99.90;;;;;;5074517;28;20050;-66
2022/06/17 02:28:51;;;;;;;11.00;6.93;;;14.60;99.90;;;;;;5066885;28;20040;-66
2022/06/17 02:31:21;;;;;;;11.27;6.43;;;14.60;99.90;;;;;;5075045;28;20071;-66
2022/06/17 02:33:51;;;;;;;11.45;6.63;;;14.60;99.90;;;;;;5093574;28;20418;-66
2022/06/17 02:36:38;;;;;;;7.47;6.30;;;14.50;99.90;;;;;;5074292;28;20044;-66
2022/06/17 02:39:05;;;;;;;8.77;6.40;;;14.60;99.90;;;;;;5067769;28;20097;-66
2022/06/17 02:41:32;;;;;;;10.65;6.60;;;14.50;99.90;;;;;;5092748;28;20044;-66
2022/06/17 02:44:05;;;;;;;;;;;14.50;99.90;;;;;;5075596;28;20488;-66
2022/06/17 02:46:36;;;;;;;8.52;6.30;;;14.40;99.90;;;;;;5065934;28;19924;-66
2022/06/17 02:49:09;;;;;;;9.10;6.50;;;14.40;99.90;;;;;;5074981;28;20059;-66
2022/06/17 02:51:39;;;;;;;18.58;7.25;;;14.40;99.90;;;;;;5074409;28;20048;-67
2022/06/17 02:54:07;;;;;;;9.27;6.47;;;14.40;99.90;;;;;;5074245;28;20044;-66
2022/06/17 02:56:37;;;;;;;9.68;6.00;;;14.40;99.90;;;;;;5066418;28;20377;-66
2022/06/17 02:59:17;;;;;;;11.32;6.28;;;14.40;99.90;;;;;;5093039;28;20043;-67
2022/06/17 03:01:50;;;;;;;11.02;5.68;;;14.40;99.90;;;;;;5072281;28;20136;-66
2022/06/17 03:04:32;;;;;;;13.77;8.35;;;14.30;99.90;;;;;;5066226;28;20097;-66
2022/06/17 03:07:01;;;;;;;9.70;6.38;;;14.30;99.90;;;;;;5074602;28;20135;-67
2022/06/17 03:09:30;;;;;;;;;;;14.30;99.90;;;;;;5073204;28;20070;-66
2022/06/17 03:12:19;;;;;;;10.38;6.13;;;14.30;99.90;;;;;;5065823;28;19920;-66
2022/06/17 03:14:52;;;;;;;8.70;6.28;;;14.30;99.90;;;;;;5074444;28;20496;-66
2022/06/17 03:17:23;;;;;;;12.85;6.65;;;14.30;99.90;;;;;;5074383;28;20051;-66
2022/06/17 03:19:54;;;;;;;11.43;6.40;;;14.30;99.90;;;;;;5073578;28;20054;-66
2022/06/17 03:22:22;;;;;;;8.70;6.53;;;14.30;99.90;;;;;;5084013;28;20047;-67
2022/06/17 03:25:04;;;;;;;11.88;6.25;;;14.20;99.90;;;;;;5074444;28;20040;-66
2022/06/17 03:27:46;;;;;;;11.70;6.93;;;14.30;99.90;;;;;;5073322;28;20447;-67
2022/06/17 03:30:19;;;;;;;8.60;6.95;;;14.20;99.90;;;;;;5067788;28;20044;-66
2022/06/17 03:32:51;;;;;;;11.02;6.22;;;14.30;99.90;;;;;;5074091;28;20496;-66
2022/06/17 03:35:28;;;;;;;10.10;7.00;;;14.30;99.90;;;;;;5074089;28;20515;-67
2022/06/17 03:38:00;;;;;;;11.93;6.82;;;14.30;99.90;;;;;;5069453;28;20048;-66
2022/06/17 03:40:44;;;;;;;10.32;7.13;;;14.30;99.90;;;;;;5069294;28;20477;-67
2022/06/17 03:43:22;;;;;;;9.98;6.35;;;14.40;99.90;;;;;;5074023;28;20079;-67
2022/06/17 03:46:00;;;;;;;8.20;5.93;;;14.50;99.90;;;;;;5073114;28;20043;-67
2022/06/17 03:49:00;;;;;;;9.35;6.50;;;14.50;99.90;;;;;;5065270;28;20067;-66
2022/06/17 03:51:29;;;;;;;8.35;5.85;;;14.50;99.90;;;;;;5073799;28;20097;-66
2022/06/17 03:53:58;;;;;;;9.95;6.60;;;14.40;99.90;;;;;;5073792;28;20420;-66
2022/06/17 03:56:29;;;;;;;11.15;5.93;;;14.50;99.90;;;;;;5073011;28;20048;-66
2022/06/17 03:58:58;;;;;;;11.10;5.72;;;14.50;99.90;;;;;;5065096;28;20083;-67
2022/06/17 04:01:33;;;;;;;14.32;6.32;;;14.50;99.90;;;;;;5073170;28;20040;-66
2022/06/17 04:04:23;;;;;;;8.75;6.18;;;14.50;99.90;;;;;;5073095;28;20097;-67
2022/06/17 04:06:55;;;;;;;9.02;5.85;;;14.50;99.90;;;;;;5065353;28;20040;-66
2022/06/17 04:09:29;;;;;;;10.80;6.53;;;14.60;99.90;;;;;;5073667;28;20040;-67
2022/06/17 04:12:05;;;;;;;6.68;5.85;;;14.60;99.90;;;;;;5073368;28;20138;-66
2022/06/17 04:15:07;;;;;;;10.70;6.50;;;14.60;99.90;;;;;;5064486;28;20048;-66
2022/06/17 04:17:51;;;;;;;13.23;6.32;;;14.70;99.90;;;;;;5073804;28;20079;-67
2022/06/17 04:20:31;;;;;;;9.52;5.90;;;14.80;99.90;;;;;;5072615;28;20113;-66
2022/06/17 04:23:19;;;;;;;9.32;5.80;;;14.80;99.90;;;;;;5065012;28;20036;-66
2022/06/17 04:26:28;;;;;;;9.43;6.03;;;14.70;99.90;;;;;;5053323;28;20059;-66
2022/06/17 04:29:05;;;;;;;8.35;5.60;;;14.80;99.90;;;;;;5073465;28;20067;-66
2022/06/17 04:31:34;;;;;;;;;;;14.80;99.90;;;;;;5064565;28;20100;-66
2022/06/17 04:34:14;;;;;;;9.60;6.78;;;14.70;99.90;;;;;;5073260;28;19920;-66
2022/06/17 04:36:59;;;;;;;8.90;6.57;;;14.60;99.90;;;;;;5073433;28;20097;-66
2022/06/17 04:39:37;;;;;;;8.35;6.07;;;14.60;99.90;;;;;;5079542;28;20029;-67
2022/06/17 04:42:40;;;;;;;11.23;6.65;;;14.70;99.90;;;;;;5047658;28;20071;-67
2022/06/17 04:45:24;;;;;;;14.23;7.38;;;14.70;99.90;;;;;;5053957;28;20045;-66
2022/06/17 04:47:54;;;;;;;10.77;7.53;;;14.90;99.90;;;;;;5069734;28;20571;-67
2022/06/17 04:50:26;;;;;;;13.02;8.18;;;14.90;99.90;;;;;;5069971;28;20515;-67
2022/06/17 04:52:55;;;;;;;16.45;10.10;;;15.10;99.90;;;;;;5077224;28;20106;-67
2022/06/17 04:55:34;;;;;;;16.80;10.68;;;15.30;99.90;;;;;;5094734;28;20043;-67
2022/06/17 04:58:26;;;;;;;17.90;11.02;;;15.50;99.90;;;;;;5071800;28;20061;-66
2022/06/17 05:01:03;;;;;;;16.45;11.07;;;15.60;99.90;;;;;;5076092;28;20142;-66
2022/06/17 05:03:47;;;;;;;15.30;10.90;;;15.70;99.90;;;;;;5067584;28;20139;-66
2022/06/17 05:06:31;;;;;;;20.90;10.73;;;15.70;99.90;;;;;;5084560;28;20492;-66
2022/06/17 05:09:20;;;;;;;19.20;11.35;;;15.80;99.90;;;;;;5066003;28;20036;-66
2022/06/17 05:11:53;;;;;;;23.40;9.98;;;15.90;99.90;;;;;;5075321;28;20048;-67
2022/06/17 05:14:41;;;;;;;22.92;10.13;;;16.10;99.90;;;;;;5066587;28;20041;-67
2022/06/17 05:17:08;;;;;;;18.17;8.65;;;16.20;99.90;;;;;;5091242;28;20044;-66
2022/06/17 05:19:36;;;;;;;14.95;9.57;;;16.20;99.90;;;;;;5076539;28;20520;-66
2022/06/17 05:22:10;;;;;;;13.43;9.40;;;16.20;99.90;;;;;;5071418;28;20044;-67
2022/06/17 05:24:38;;;;;;;10.38;8.38;;;16.20;99.90;;;;;;5073912;28;20127;-67
2022/06/17 05:27:06;;;;;;;15.80;9.10;;;16.20;99.90;;;;;;5076377;28;20808;-66
2022/06/17 05:29:33;;;;;;;11.05;8.50;;;16.20;99.90;;;;;;5067631;28;20048;-67
2022/06/17 05:32:05;;;;;;;12.85;8.95;;;16.10;99.90;;;;;;5072933;28;20054;-67
2022/06/17 05:34:38;;;;;;;10.02;8.63;;;16.00;99.90;;;;;;5074223;28;20076;-67
2022/06/17 05:37:05;;;;;;;16.05;9.23;;;15.90;99.90;;;;;;5074996;28;20048;-66
2022/06/17 05:39:35;;;;;;;14.25;10.73;;;15.90;99.90;;;;;;5075309;28;20082;-67
2022/06/17 05:42:05;;;;;;;;;;;16.00;99.90;;;;;;5075872;28;20064;-67
2022/06/17 05:44:32;;;;;;;18.52;12.10;;;16.00;99.90;;;;;;5069949;28;19920;-67
2022/06/17 05:47:18;;;;;;;13.57;10.63;;;16.10;99.90;;;;;;5093394;28;20047;-67
2022/06/17 05:50:14;;;;;;;14.60;10.30;;;16.20;99.90;;;;;;5084299;28;20416;-66
2022/06/17 05:53:08;;;;;;;22.38;10.63;;;16.10;99.90;;;;;;5091374;28;20590;-67
2022/06/17 05:55:45;;;;;;;14.80;10.93;;;16.20;99.90;;;;;;5057840;28;20427;-67
2022/06/17 05:58:12;;;;;;;14.45;10.02;;;16.20;99.90;;;;;;5072218;28;20045;-66
2022/06/17 06:00:40;;;;;;;15.23;9.10;;;16.40;99.90;;;;;;5064626;28;20051;-67
2022/06/17 06:03:07;;;;;;;;;;;16.50;99.90;;;;;;5075930;28;20042;-67
2022/06/17 06:05:36;;;;;;;20.63;9.70;;;16.70;99.90;;;;;;5059189;28;19924;-67
2022/06/17 06:08:08;;;;;;;12.35;9.20;;;17.10;99.90;;;;;;5067100;28;20051;-67
2022/06/17 06:10:40;;;;;;;15.48;10.18;;;17.40;99.90;;;;;;5062443;28;20036;-67
2022/06/17 06:13:07;;;;;;;14.90;9.70;;;17.40;99.90;;;;;;5073162;28;20053;-67
2022/06/17 06:15:41;;;;;;;10.73;8.35;;;17.20;99.90;;;;;;5060696;28;20041;-67
2022/06/17 06:18:23;;;;;;;12.38;8.82;;;17.10;99.90;;;;;;5066923;28;20105;-67
2022/06/17 06:20:51;;;;;;;16.17;8.88;;;17.10;99.90;;;;;;5074024;28;20051;-66
2022/06/17 06:23:21;;;;;;;12.38;9.00;;;17.00;99.90;;;;;;5074784;28;20047;-66
2022/06/17 06:25:48;;;;;;;12.82;9.23;;;17.10;99.90;;;;;;5065218;28;20504;-66
2022/06/17 06:28:19;;;;;;;12.57;8.45;;;17.10;99.90;;;;;;5073236;28;20123;-66
2022/06/17 06:30:54;;;;;;;15.18;9.15;;;17.30;99.90;;;;;;5074584;28;20063;-66
2022/06/17 06:33:22;;;;;;;14.50;8.70;;;17.40;99.90;;;;;;5071232;28;20051;-66
2022/06/17 06:35:50;;;;;;;16.42;9.45;;;17.50;99.90;;;;;;5063323;28;20159;-66
2022/06/17 06:38:17;;;;;;;;;;;17.50;99.90;;;;;;5064223;28;20071;-66
2022/06/17 06:40:45;;;;;;;15.02;8.38;;;17.60;99.90;;;;;;5081261;28;19983;-67
2022/06/17 06:43:16;;;;;;;15.05;8.45;;;17.70;99.90;;;;;;5063115;28;20059;-67
2022/06/17 06:46:14;;;;;;;10.80;8.43;;;17.90;99.90;;;;;;5072547;28;20520;-66
2022/06/17 06:48:48;;;;;;;10.63;8.02;;;18.10;99.90;;;;;;5071318;28;20048;-66
2022/06/17 06:51:15;;;;;;;;;;;18.30;99.90;;;;;;5056232;28;20090;-66
2022/06/17 06:53:42;;;;;;;9.85;7.78;;;18.50;99.90;;;;;;5069498;28;20011;-66
2022/06/17 06:56:09;;;;;;;11.30;8.00;;;18.50;99.90;;;;;;5054315;28;20041;-67
2022/06/17 06:58:36;;;;;;;11.00;7.47;;;18.70;99.90;;;;;;5070939;28;20093;-66
2022/06/17 07:01:03;;;;;;;10.88;7.47;;;19.00;99.90;;;;;;5071635;28;20064;-67
2022/06/17 07:03:30;;;;;;;13.60;7.68;;;19.20;99.90;;;;;;5066181;28;20560;-67
2022/06/17 07:06:00;;;;;;;11.95;7.55;;;19.20;99.90;;;;;;5092467;28;20040;-67
2022/06/17 07:08:30;;;;;;;10.48;7.45;;;19.30;99.90;;;;;;5073029;28;20067;-67
2022/06/17 07:10:59;;;;;;;14.88;8.00;;;19.40;99.90;;;;;;5083548;28;20047;-67
2022/06/17 07:13:28;;;;;;;10.48;7.57;;;19.30;99.90;;;;;;5088614;28;20044;-67
2022/06/17 07:15:55;;;;;;;15.32;7.13;;;19.30;99.90;;;;;;5083814;28;20097;-67
2022/06/17 07:18:23;;;;;;;8.48;7.25;;;19.50;99.90;;;;;;5092321;28;20459;-62
2022/06/17 07:20:53;;;;;;;9.32;6.82;;;19.60;99.90;;;;;;5074485;28;20056;-69
2022/06/17 07:23:29;;;;;;;12.63;7.18;;;19.60;99.90;;;;;;5071867;28;20047;-64
2022/06/17 07:26:19;;;;;;;11.23;7.50;;;19.80;99.90;;;;;;5072273;28;20507;-64
2022/06/17 07:28:47;;;;;;;13.35;7.30;;;20.00;99.90;;;;;;5100281;22;20142;-63
2022/06/17 07:34:44;;;;;;;8.60;5.90;;;20.20;99.90;;;;;;5091130;28;20040;-63
2022/06/17 07:39:58;;;;;;;10.20;6.50;;;20.50;99.90;;;;;;5079646;28;20078;-62
2022/06/17 07:42:37;;;;;;;8.30;6.13;;;20.70;99.90;;;;;;5078474;28;20040;-62
2022/06/17 07:45:11;;;;;;;11.02;6.63;;;20.90;99.90;;;;;;5080070;28;20463;-62
2022/06/17 07:47:40;;;;;;;10.20;6.40;;;21.00;99.90;;;;;;5071302;28;20048;-66
2022/06/17 07:50:11;;;;;;;9.20;6.13;;;21.10;99.90;;;;;;5071680;28;20052;-63
2022/06/17 07:52:38;;;;;;;16.95;6.55;;;21.10;99.90;;;;;;5080382;28;20103;-64
2022/06/17 07:55:06;;;;;;;7.78;6.25;;;21.20;99.90;;;;;;5091844;28;20048;-63
2022/06/17 07:57:40;;;;;;;10.25;6.43;;;21.20;99.90;;;;;;5073810;28;20054;-65
2022/06/17 08:00:12;;;;;;;;;;;21.30;99.90;;;;;;5090893;28;20082;-65
2022/06/17 08:02:39;;;;;;;13.48;6.50;;;21.30;99.90;;;;;;5083153;28;19927;-65
2022/06/17 08:05:06;;;;;;;11.23;6.18;;;21.40;99.90;;;;;;5091554;28;20047;-63
2022/06/17 08:07:33;;;;;;;;;;;21.50;99.90;;;;;;5086142;28;20417;-65
2022/06/17 08:10:00;;;;;;;9.40;6.05;;;21.60;99.90;;;;;;5083682;28;19924;-65
2022/06/17 08:12:26;;;;;;;8.25;5.40;;;21.80;99.90;;;;;;5086759;28;20051;-65
2022/06/17 08:14:56;;;;;;;;;;;21.90;99.90;;;;;;5091978;28;20051;-65
2022/06/17 08:17:24;;;;;;;6.68;5.53;;;22.00;99.90;;;;;;5090773;28;19920;-65
2022/06/17 08:19:55;;;;;;;14.40;5.70;;;22.20;99.90;;;;;;5082682;28;20093;-65
2022/06/17 08:22:25;;;;;;;6.43;5.72;;;22.20;99.90;;;;;;5075388;28;20040;-65
2022/06/17 08:24:53;;;;;;;9.73;5.50;;;22.30;99.90;;;;;;5087065;28;20081;-65
2022/06/17 08:27:20;;;;;;;8.00;5.60;;;22.40;99.90;;;;;;5085180;28;20032;-65
2022/06/17 08:29:46;;;;;;;8.23;5.47;;;22.50;99.90;;;;;;5089832;28;20036;-65
2022/06/17 08:35:01;;;;;;;10.00;5.25;;;22.60;99.90;;;;;;5076245;28;20550;-65
2022/06/17 08:37:28;;;;;;;10.85;5.53;;;22.60;99.90;;;;;;5082589;28;20081;-65
2022/06/17 08:39:55;;;;;;;7.45;5.32;;;22.60;99.90;;;;;;5061495;28;20149;-65
2022/06/17 08:42:33;;;;;;;8.80;5.47;;;22.60;99.90;;;;;;5090393;28;20089;-65
2022/06/17 08:45:23;;;;;;;10.70;5.78;;;22.60;99.90;;;;;;5079597;28;20443;-65
2022/06/17 08:48:27;;;;;;;11.23;5.35;;;22.60;99.90;;;;;;5077659;28;20043;-65
2022/06/17 08:51:06;;;;;;;10.75;5.40;;;22.80;99.90;;;;;;5087513;28;20500;-65
2022/06/17 08:53:54;;;;;;;7.90;5.35;;;22.80;99.90;;;;;;5072674;28;20062;-66
2022/06/17 08:56:46;;;;;;;12.90;5.72;;;22.90;99.90;;;;;;5085251;28;20044;-65
2022/06/17 08:59:25;;;;;;;9.30;5.40;;;23.00;99.90;;;;;;5075598;28;20044;-65
2022/06/17 09:02:19;;;;;;;8.38;5.35;;;23.20;99.90;;;;;;5089393;28;20521;-65
2022/06/17 09:04:55;;;;;;;9.07;5.53;;;23.20;99.90;;;;;;5080208;28;20044;-65
2022/06/17 09:07:33;;;;;;;10.32;6.05;;;23.40;99.90;;;;;;5082141;28;20040;-65
2022/06/17 09:10:19;;;;;;;9.85;5.57;;;23.30;99.90;;;;;;5081751;28;20113;-65
2022/06/17 09:13:22;;;;;;;7.93;4.85;;;23.50;99.90;;;;;;5076619;28;20044;-63
2022/06/17 09:16:14;;;;;;;10.80;5.32;;;23.50;99.90;;;;;;5070999;28;20051;-64
2022/06/17 09:18:45;;;;;;;9.93;5.30;;;23.50;99.90;;;;;;5079637;28;20127;-64
2022/06/17 09:21:23;;;;;;;8.07;4.80;;;23.40;99.90;;;;;;5089141;28;20442;-64
2022/06/17 09:23:52;;;;;;;7.38;5.38;;;23.30;99.90;;;;;;5079144;28;20131;-64
2022/06/17 09:26:29;;;;;;;7.70;4.70;;;23.20;99.90;;;;;;5087264;28;20389;-64
2022/06/17 09:29:06;;;;;;;9.25;5.60;;;23.10;99.90;;;;;;5081580;28;20047;-64
2022/06/17 09:31:38;;;;;;;11.65;5.13;;;23.10;99.90;;;;;;5087563;28;20408;-64
2022/06/17 09:34:15;;;;;;;10.32;5.10;;;23.10;99.90;;;;;;5071482;28;20040;-64
2022/06/17 09:36:45;;;;;;;10.77;4.78;;;23.00;99.90;;;;;;5091766;28;20043;-63
2022/06/17 09:39:42;;;;;;;8.90;5.20;;;23.00;99.90;;;;;;5087180;28;20417;-64
2022/06/17 09:42:18;;;;;;;8.50;5.18;;;23.00;99.90;;;;;;5086489;28;20485;-64
2022/06/17 09:44:52;;;;;;;7.28;4.68;;;23.10;99.90;;;;;;5084383;28;20106;-64
2022/06/17 09:47:24;;;;;;;9.93;5.20;;;23.30;99.90;;;;;;5084480;28;20040;-64
2022/06/17 09:50:00;;;;;;;11.30;5.00;;;23.00;99.90;;;;;;5083350;28;20127;-64
2022/06/17 09:52:42;;;;;;;6.88;4.60;;;22.90;99.90;;;;;;5081543;28;20071;-64
2022/06/17 09:55:25;;;;;;;8.23;5.00;;;23.10;99.90;;;;;;5083553;28;20048;-64
2022/06/17 09:58:02;;;;;;;4.40;4.00;;;23.20;99.90;;;;;;5079582;28;20439;-64
2022/06/17 10:00:43;;;;;;;13.25;4.88;;;23.20;99.90;;;;;;5086900;28;20028;-64
2022/06/17 10:03:19;;;;;;;7.13;4.32;;;23.40;99.90;;;;;;5074756;28;20059;-64
2022/06/17 10:06:09;;;;;;;8.20;5.13;;;23.50;99.90;;;;;;5080121;28;20044;-64
2022/06/17 10:09:12;;;;;;;7.35;4.70;;;23.50;99.90;;;;;;5075649;28;20036;-64
2022/06/17 10:11:54;;;;;;;6.68;4.57;;;23.60;99.90;;;;;;5083388;28;20044;-64
2022/06/17 10:14:45;;;;;;;7.40;4.75;;;23.80;99.90;;;;;;5076340;28;20048;-64
2022/06/17 10:20:37;;;;;;;7.00;4.15;;;23.80;99.90;;;;;;5081987;28;20044;-64
2022/06/17 10:23:13;;;;;;;10.73;4.30;;;23.80;99.90;;;;;;5073827;28;20041;-64
2022/06/17 10:26:10;;;;;;;10.73;4.20;;;23.80;99.90;;;;;;5090879;28;20050;-64
2022/06/17 10:29:03;;;;;;;6.10;3.97;;;23.80;99.90;;;;;;5077446;28;20040;-64
2022/06/17 10:31:33;;;;;;;5.05;3.80;;;24.00;99.90;;;;;;5078879;28;20048;-64
2022/06/17 10:34:06;;;;;;;7.88;3.95;;;24.20;99.90;;;;;;5075928;28;20078;-64
2022/06/17 10:36:40;;;;;;;5.43;4.53;;;24.30;99.90;;;;;;5084717;28;20102;-64
2022/06/17 10:39:10;;;;;;;5.75;3.90;;;24.30;99.90;;;;;;5093425;28;20044;-64
2022/06/17 10:41:38;;;;;;;5.82;3.85;;;24.30;99.90;;;;;;5091739;28;20036;-64
2022/06/17 10:44:09;;;;;;;7.65;3.83;;;24.30;99.90;;;;;;5066273;28;20036;-64
2022/06/17 10:46:40;;;;;;;6.18;3.75;;;24.30;99.90;;;;;;5072044;28;20420;-64
2022/06/17 10:49:19;;;;;;;5.30;4.07;;;24.50;99.90;;;;;;5083453;28;20052;-64
2022/06/17 10:51:50;;;;;;;4.20;3.50;;;24.40;99.90;;;;;;5085120;28;20060;-63
2022/06/17 10:54:25;;;;;;;6.07;3.65;;;24.50;99.90;;;;;;5083203;28;20048;-63
2022/06/17 10:57:05;;;;;;;4.65;3.50;;;24.60;99.70;;;;;;5092207;28;20059;-63
2022/06/17 10:59:41;;;;;;;6.55;3.50;;;24.60;99.90;;;;;;5088166;28;20040;-62
2022/06/17 11:02:29;;;;;;;4.82;3.60;;;24.70;99.90;;;;;;5066322;28;20036;-64
2022/06/17 11:04:58;;;;;;;3.72;3.17;;;24.70;99.60;;;;;;5083157;28;20036;-64
2022/06/17 11:07:50;;;;;;;3.65;3.35;;;24.60;98.60;;;;;;5062228;28;20433;-64
2022/06/17 11:10:24;;;;;;;4.97;3.67;;;24.50;98.70;;;;;;5090445;28;20395;-64
2022/06/17 11:12:57;;;;;;;6.78;3.90;;;24.60;99.30;;;;;;5085079;28;20048;-64
2022/06/17 11:15:28;;;;;;;4.60;3.38;;;24.80;99.40;;;;;;5086974;28;20051;-64
2022/06/17 11:18:13;;;;;;;6.38;3.65;;;25.00;99.90;;;;;;5088430;28;20098;-62
2022/06/17 11:20:51;;;;;;;7.53;3.42;;;24.90;99.40;;;;;;5084969;28;20051;-64
2022/06/17 11:23:28;;;;;;;4.72;3.72;;;24.90;99.60;;;;;;5067226;28;20062;-64
2022/06/17 11:26:15;;;;;;;3.83;2.95;;;25.10;98.90;;;;;;5091904;28;20484;-64
2022/06/17 11:28:56;;;;;;;4.95;3.33;;;25.00;96.70;;;;;;5086733;28;20485;-64
2022/06/17 11:31:25;;;;;;;5.15;3.20;;;24.90;98.20;;;;;;5070866;28;20044;-64
2022/06/17 11:33:52;;;;;;;4.97;3.10;;;24.80;97.00;;;;;;5070878;28;20040;-62
2022/06/17 11:36:32;;;;;;;3.92;3.10;;;24.80;96.80;;;;;;5080189;28;20031;-64
2022/06/17 11:39:33;;;;;;;4.07;2.80;;;24.90;97.60;;;;;;5083548;28;20097;-65
2022/06/17 11:42:24;;;;;;;8.32;3.38;;;25.00;96.50;;;;;;5091163;28;20075;-64
2022/06/17 11:45:05;;;;;;;5.60;3.35;;;25.00;97.40;;;;;;5089559;28;20040;-64
2022/06/17 11:47:34;;;;;;;3.67;2.80;;;25.00;95.90;;;;;;5090763;28;20051;-65
2022/06/17 11:50:15;;;;;;;5.43;3.10;;;25.10;96.80;;;;;;5079548;28;20607;-64
2022/06/17 11:52:42;;;;;;;5.93;3.17;;;25.10;96.80;;;;;;5071688;28;20066;-65
2022/06/17 11:55:09;;;;;;;5.53;3.00;;;25.30;96.90;;;;;;5083327;28;20416;-64
2022/06/17 11:57:41;;;;;;;4.38;3.20;;;25.40;94.50;;;;;;5090755;28;20051;-64
2022/06/17 12:00:46;;;;;;;8.55;3.42;;;25.30;96.90;;;;;;5082934;28;20055;-64
2022/06/17 12:03:16;;;;;;;10.65;3.47;;;25.20;95.50;;;;;;5079122;28;20056;-64
2022/06/17 12:05:55;;;;;;;3.60;3.10;;;25.20;97.10;;;;;;5083200;28;20040;-64
2022/06/17 12:08:31;;;;;;;5.03;2.90;;;25.30;96.10;;;;;;5091221;28;20044;-64
2022/06/17 12:11:10;;;;;;;8.88;3.13;;;25.50;98.00;;;;;;5085347;28;20039;-64
2022/06/17 12:13:45;;;;;;;4.28;3.15;;;25.60;96.50;;;;;;5074552;28;20059;-64
2022/06/17 12:16:30;;;;;;;3.83;2.92;;;25.60;94.40;;;;;;5090733;28;20101;-64
2022/06/17 12:18:59;;;;;;;4.03;2.95;;;25.70;94.70;;;;;;5080921;28;20520;-64
2022/06/17 12:21:56;;;;;;;5.95;3.42;;;25.70;92.70;;;;;;5089628;28;20052;-64
2022/06/17 12:24:31;;;;;;;5.63;2.92;;;25.60;92.60;;;;;;5081185;28;20428;-64
2022/06/17 12:27:07;;;;;;;5.00;2.70;;;25.60;93.10;;;;;;5079425;28;20381;-64
2022/06/17 12:29:51;;;;;;;4.40;3.08;;;25.80;94.00;;;;;;5077789;28;20044;-64
2022/06/17 12:32:29;;;;;;;3.85;2.83;;;25.80;93.50;;;;;;5088282;28;20040;-64
2022/06/17 12:35:17;;;;;;;4.32;3.33;;;25.70;93.20;;;;;;5083548;28;20093;-64
2022/06/17 12:38:00;;;;;;;6.50;3.03;;;25.80;93.60;;;;;;5072654;28;20044;-64
2022/06/17 12:40:49;;;;;;;5.38;3.20;;;25.70;92.30;;;;;;5080957;28;20786;-64
2022/06/17 12:43:24;;;;;;;;;;;25.60;94.00;;;;;;5088234;28;20044;-64
2022/06/17 12:46:16;;;;;;;6.53;3.55;;;25.70;92.60;;;;;;5085184;28;19969;-64
2022/06/17 12:48:58;;;;;;;6.00;3.28;;;25.80;93.20;;;;;;5070295;28;20080;-64
2022/06/17 12:54:44;;;;;;;3.38;3.08;;;25.90;93.50;;;;;;5071552;28;20086;-64
2022/06/17 12:57:30;;;;;;;5.32;2.78;;;25.80;93.60;;;;;;5078449;28;20058;-64
2022/06/17 13:00:14;;;;;;;5.63;2.92;;;25.70;92.80;;;;;;5063628;28;20032;-64
2022/06/17 13:02:44;;;;;;;4.38;2.90;;;25.60;92.50;;;;;;5082783;28;20056;-64
2022/06/17 13:05:24;;;;;;;7.50;3.13;;;25.50;92.10;;;;;;5090469;28;20044;-64
2022/06/17 13:08:12;;;;;;;3.45;2.72;;;25.50;92.00;;;;;;5087749;28;20032;-64
2022/06/17 13:10:47;;;;;;;2.88;2.67;;;25.60;93.40;;;;;;5071272;28;20051;-64
2022/06/17 13:13:41;;;;;;;3.90;2.95;;;25.70;92.40;;;;;;5075390;28;20725;-64
2022/06/17 13:16:26;;;;;;;4.47;3.03;;;25.80;92.20;;;;;;5083085;28;20051;-64
2022/06/17 13:19:23;;;;;;;5.82;2.85;;;25.90;91.60;;;;;;5074484;28;20098;-64
2022/06/17 13:22:07;;;;;;;5.47;2.70;;;25.80;91.70;;;;;;5078694;28;20063;-64
2022/06/17 13:24:44;;;;;;;3.65;2.72;;;25.90;92.50;;;;;;5084648;28;20033;-65
2022/06/17 13:27:30;;;;;;;4.30;2.90;;;25.80;92.50;;;;;;5099551;22;20439;-65
2022/06/17 13:30:16;;;;;;;7.15;2.70;;;25.80;91.90;;;;;;5081328;28;20043;-65
2022/06/17 13:32:50;;;;;;;4.25;3.10;;;25.70;91.60;;;;;;5085147;28;20048;-65
2022/06/17 13:35:44;;;;;;;6.78;3.05;;;25.70;91.80;;;;;;5093757;28;20533;-64
2022/06/17 13:38:20;;;;;;;7.35;2.90;;;25.90;91.00;;;;;;5071015;28;20528;-65
2022/06/17 13:40:51;;;;;;;4.10;2.95;;;25.90;91.80;;;;;;5057038;28;20095;-64
2022/06/17 13:43:24;;;;;;;4.10;2.70;;;26.10;91.80;;;;;;5074188;28;20090;-65
2022/06/17 13:45:54;;;;;;;3.60;3.10;;;26.20;92.70;;;;;;5073976;28;20098;-65
2022/06/17 13:48:37;;;;;;;3.15;2.58;;;26.20;91.80;;;;;;5072849;28;20040;-65